Current Weather Conditions: station NFBF1

sailwx.info

Wind from 110 at 4 knots gusting 5

Air temperature 24.5° C

Last reported at 2014-Nov-24 05:54 UTC.
Time now 2014-Nov-24 08:14 UTC

Location: N 25°05' W 081°05'.
View on Google Maps.

See reports from other nearby stations

  
Tides and Currents Weather Stations Pressure Air Temp Water Temp Dewpoint Dewpoint Depression Visibility Wind Speed Wind Dir Waves Ship Positions
date/time (UTC)wind fromknots sea level pressurealtimeterstation pressurevisibilityair tempwater tempwave heightnotes
2014-Nov-24 05:54 110 4 gusting 5 24.5
2014-Nov-24 05:48 120 5 gusting 5 24.5
2014-Nov-24 04:54 100 4 gusting 4 24.4
2014-Nov-24 04:48 110 4 gusting 5 24.4
2014-Nov-24 03:54 130 5 gusting 6 24.7
2014-Nov-24 03:48 130 5 gusting 6 24.7
2014-Nov-24 02:54 130 6 gusting 7 24.8
2014-Nov-24 02:48 130 6 gusting 8 24.7
2014-Nov-24 02:42 120 7 gusting 9 24.8
2014-Nov-24 02:36 120 7 gusting 8 24.8
2014-Nov-24 02:30 120 6 gusting 7 24.8
2014-Nov-24 02:24 120 7 gusting 8 24.8
2014-Nov-24 02:18 120 7 gusting 8 24.8
2014-Nov-24 02:12 120 7 gusting 8 24.8
2014-Nov-24 02:06 120 5 gusting 6 24.9
2014-Nov-24 02:00 120 6 gusting 6 25.0
2014-Nov-24 01:54 120 5 gusting 6 25.1
2014-Nov-24 01:48 120 6 gusting 6 25.3
2014-Nov-24 01:42 120 6 gusting 7 25.4
2014-Nov-24 01:36 120 7 gusting 8 25.2
2014-Nov-24 01:30 110 5 gusting 7 25.2
2014-Nov-24 01:24 100 4 gusting 7 25.1
2014-Nov-24 01:18 100 4 gusting 4 25.2
2014-Nov-24 01:12 100 4 gusting 4 25.2
2014-Nov-24 01:06 100 3 gusting 4 25.2
2014-Nov-24 01:00 100 4 gusting 5 25.1
2014-Nov-24 00:54 110 5 gusting 6 25.0
2014-Nov-24 00:48 110 5 gusting 5 24.9
2014-Nov-23 23:54 110 6 gusting 6 25.1
2014-Nov-23 23:48 110 5 gusting 6 25.1
2014-Nov-23 23:30 110 5 gusting 6 25.1
2014-Nov-23 23:24 110 5 gusting 6 25.1
2014-Nov-23 23:18 110 5 gusting 6 25.1
2014-Nov-23 23:12 110 5 gusting 6 25.1
2014-Nov-23 23:06 110 7 gusting 8 25.0
2014-Nov-23 23:00 110 7 gusting 7 24.9
2014-Nov-23 22:54 110 5 gusting 5 24.8
2014-Nov-23 22:48 110 5 gusting 6 24.8
2014-Nov-23 22:42 120 5 gusting 6 24.8
2014-Nov-23 22:36 120 5 gusting 5 24.8
2014-Nov-23 22:30 120 5 gusting 5 24.9
2014-Nov-23 22:24 120 6 gusting 8 25.0
2014-Nov-23 22:18 120 7 gusting 8 25.1
2014-Nov-23 22:12 120 7 gusting 8 25.0
2014-Nov-23 22:06 120 7 gusting 8 25.1
2014-Nov-23 22:00 130 8 gusting 9 25.1
2014-Nov-23 21:54 120 7 gusting 8 25.2
2014-Nov-23 21:48 120 6 gusting 8 25.1
2014-Nov-23 20:54 130 6 gusting 7 25.2
2014-Nov-23 20:48 140 7 gusting 8 25.2
2014-Nov-23 19:54 110 6 gusting 8 25.1
2014-Nov-23 19:48 120 6 gusting 7 25.1
2014-Nov-23 18:54 110 5 gusting 6 25.1
2014-Nov-23 18:48 110 5 gusting 6 25.1
2014-Nov-23 17:54 120 6 gusting 7 25.1
2014-Nov-23 17:48 120 6 gusting 8 25.1
2014-Nov-23 16:54 140 7 gusting 9 24.9
2014-Nov-23 16:48 140 7 gusting 9 24.9
2014-Nov-23 15:54 140 11 gusting 12 25.0
2014-Nov-23 15:48 140 9 gusting 12 24.9
2014-Nov-23 15:42 140 10 gusting 12 24.9
2014-Nov-23 15:36 140 10 gusting 11 24.9
2014-Nov-23 15:30 140 10 gusting 12 24.9
2014-Nov-23 15:24 140 11 gusting 12 25.0
2014-Nov-23 15:18 140 11 gusting 13 25.0
2014-Nov-23 15:12 140 12 gusting 12 25.0
2014-Nov-23 15:06 140 12 gusting 13 24.9
2014-Nov-23 15:00 140 12 gusting 14 24.9
2014-Nov-23 14:54 140 12 gusting 13 24.9
2014-Nov-23 14:48 140 12 gusting 13 24.8
2014-Nov-23 13:54 120 7 gusting 9 24.6
2014-Nov-23 13:48 120 8 gusting 11 24.6
2014-Nov-23 12:54 110 7 gusting 8 24.1
2014-Nov-23 12:48 110 7 gusting 8 24.1
2014-Nov-23 12:42 110 8 gusting 9 24.1
2014-Nov-23 12:36 110 6 gusting 8 24.1
2014-Nov-23 12:30 110 6 gusting 7 24.1
2014-Nov-23 12:24 110 6 gusting 6 24.1
2014-Nov-23 12:18 110 6 gusting 7 24.1
2014-Nov-23 12:12 110 6 gusting 6 24.0
2014-Nov-23 12:06 100 6 gusting 7 24.0
2014-Nov-23 12:00 100 6 gusting 7 24.0
2014-Nov-23 11:54 110 6 gusting 7 24.0
2014-Nov-23 11:48 110 6 gusting 7 24.0
2014-Nov-23 10:54 100 5 gusting 6 23.9
2014-Nov-23 10:48 100 6 gusting 7 24.0
2014-Nov-23 10:42 100 7 gusting 7 24.0
2014-Nov-23 10:36 100 6 gusting 6 24.0
2014-Nov-23 10:30 100 6 gusting 7 24.0
2014-Nov-23 10:24 100 7 gusting 8 24.0
2014-Nov-23 10:18 100 7 gusting 8 24.1
2014-Nov-23 10:12 100 7 gusting 8 24.0
2014-Nov-23 10:06 100 7 gusting 8 24.0
2014-Nov-23 10:00 100 7 gusting 9 24.0
2014-Nov-23 09:54 110 7 gusting 9 24.0
2014-Nov-23 09:48 100 6 gusting 8 24.0
2014-Nov-23 08:54 110 7 gusting 8 23.8
2014-Nov-23 08:48 100 6 gusting 7 23.8
2014-Nov-23 08:42 090 6 gusting 7 23.8
2014-Nov-23 08:36 100 6 gusting 7 23.8
2014-Nov-23 08:30 100 6 gusting 7 23.7
2014-Nov-23 08:24 100 5 gusting 6 23.8
2014-Nov-23 08:18 100 4 gusting 5 23.9
2014-Nov-23 08:12 110 5 gusting 7 23.9
2014-Nov-23 08:06 100 6 gusting 8 23.9
2014-Nov-23 08:00 110 7 gusting 8 23.9
2014-Nov-23 07:54 110 6 gusting 7 23.9
2014-Nov-23 07:48 120 6 gusting 7 24.0
2014-Nov-23 06:54 110 6 gusting 8 24.0
2014-Nov-23 06:48 120 7 gusting 9 24.0
2014-Nov-23 05:54 110 8 gusting 9 24.0
2014-Nov-23 05:48 110 8 gusting 11 24.0
2014-Nov-23 05:42 110 8 gusting 10 24.0
2014-Nov-23 05:36 100 7 gusting 10 24.0
2014-Nov-23 05:30 110 9 gusting 11 23.9
2014-Nov-23 05:24 100 10 gusting 12 24.0
2014-Nov-23 05:18 110 10 gusting 12 24.0
2014-Nov-23 05:12 110 10 gusting 11 24.0
2014-Nov-23 05:06 110 10 gusting 12 24.1
2014-Nov-23 05:00 110 9 gusting 12 24.0
2014-Nov-23 04:54 110 9 gusting 12 24.0
2014-Nov-23 04:48 100 8 gusting 11 24.0
2014-Nov-23 04:42 100 9 gusting 11 24.0
2014-Nov-23 04:36 100 9 gusting 11 24.1
2014-Nov-23 04:30 100 9 gusting 10 24.1
2014-Nov-23 04:24 110 10 gusting 12 24.1
2014-Nov-23 04:18 110 11 gusting 13 24.1
2014-Nov-23 04:12 110 11 gusting 13 24.1
2014-Nov-23 04:06 110 11 gusting 12 24.1
2014-Nov-23 04:00 110 11 gusting 13 24.1
2014-Nov-23 03:54 110 11 gusting 13 24.1
2014-Nov-23 03:48 120 12 gusting 13 24.1
2014-Nov-23 02:54 110 13 gusting 14 24.4
2014-Nov-23 02:48 110 13 gusting 14 24.4
2014-Nov-23 01:54 110 13 gusting 14 24.3
2014-Nov-23 01:48 110 13 gusting 17 24.3
2014-Nov-23 00:54 110 13 gusting 14 24.4
2014-Nov-23 00:48 120 13 gusting 17 24.4
2014-Nov-22 23:54 110 12 gusting 13 24.1
2014-Nov-22 23:48 100 13 gusting 13 24.1
2014-Nov-22 23:30 100 14 gusting 16 24.2
2014-Nov-22 23:24 100 14 gusting 16 24.2
2014-Nov-22 23:18 100 13 gusting 15 24.1
2014-Nov-22 23:12 110 14 gusting 16 24.2
2014-Nov-22 23:06 110 14 gusting 16 24.2
2014-Nov-22 23:00 110 13 gusting 15 24.1
2014-Nov-22 22:54 100 12 gusting 14 24.0
2014-Nov-22 22:48 100 11 gusting 13 24.0
2014-Nov-22 22:42 100 11 gusting 13 24.0
2014-Nov-22 22:36 100 12 gusting 13 24.0
2014-Nov-22 22:30 110 13 gusting 14 24.0
2014-Nov-22 22:24 100 13 gusting 14 23.9
2014-Nov-22 22:18 110 14 gusting 16 24.0
2014-Nov-22 22:12 110 15 gusting 18 24.0
2014-Nov-22 22:06 110 15 gusting 18 24.1
2014-Nov-22 22:00 110 16 gusting 18 24.3
2014-Nov-22 21:54 110 14 gusting 19 24.4
2014-Nov-22 21:48 110 15 gusting 19 24.4
2014-Nov-22 20:54 110 14 gusting 15 24.4
2014-Nov-22 20:48 100 14 gusting 15 24.4
2014-Nov-22 20:42 100 14 gusting 17 24.5
2014-Nov-22 20:36 110 13 gusting 15 24.5
2014-Nov-22 20:30 100 14 gusting 16 24.5
2014-Nov-22 20:24 110 14 gusting 16 24.4
2014-Nov-22 20:18 110 14 gusting 16 24.4
2014-Nov-22 20:12 100 14 gusting 16 24.3
2014-Nov-22 20:06 090 13 gusting 15 24.3
2014-Nov-22 20:00 100 13 gusting 15 24.3
2014-Nov-22 19:54 110 13 gusting 14 24.2
2014-Nov-22 19:48 100 11 gusting 13 24.1
2014-Nov-22 18:54 100 11 gusting 13 24.1
2014-Nov-22 18:48 100 12 gusting 14 24.1
2014-Nov-22 17:54 090 12 gusting 13 23.8
2014-Nov-22 17:48 090 12 gusting 13 23.8
2014-Nov-22 16:54 090 12 gusting 13 23.3
2014-Nov-22 16:48 090 13 gusting 14 23.3
2014-Nov-22 15:54 090 17 gusting 19 23.2
2014-Nov-22 15:48 100 15 gusting 19 23.3
2014-Nov-22 14:54 090 11 gusting 13 23.4
2014-Nov-22 14:48 090 12 gusting 13 23.5
2014-Nov-22 14:30 080 13 gusting 15 23.5
2014-Nov-22 14:24 080 14 gusting 15 23.4
2014-Nov-22 14:18 090 14 gusting 16 23.4
2014-Nov-22 14:12 090 14 gusting 16 23.4
2014-Nov-22 14:06 090 15 gusting 16 23.4
2014-Nov-22 14:00 090 15 gusting 18 23.4
2014-Nov-22 13:54 090 13 gusting 15 23.4
2014-Nov-22 13:48 090 13 gusting 14 23.3
2014-Nov-22 12:54 080 12 gusting 13 23.2
2014-Nov-22 12:48 080 13 gusting 14 23.3
2014-Nov-22 12:42 080 12 gusting 14 23.2
2014-Nov-22 12:36 080 12 gusting 14 23.2
2014-Nov-22 12:30 080 12 gusting 13 23.1
2014-Nov-22 12:24 090 12 gusting 13 23.0
2014-Nov-22 12:18 090 12 gusting 14 23.1
2014-Nov-22 12:12 090 13 gusting 14 23.1
2014-Nov-22 12:06 090 14 gusting 16 23.2
2014-Nov-22 12:00 080 14 gusting 16 23.1
2014-Nov-22 11:54 090 13 gusting 15 23.2
2014-Nov-22 11:48 090 13 gusting 15 23.2
2014-Nov-22 10:54 080 13 gusting 13 23.1
2014-Nov-22 10:48 090 12 gusting 13 23.2
2014-Nov-22 09:54 090 13 gusting 14 23.2
2014-Nov-22 09:48 080 13 gusting 14 23.1
2014-Nov-22 09:42 080 13 gusting 14 23.1
2014-Nov-22 09:36 080 12 gusting 14 23.1
2014-Nov-22 09:30 080 12 gusting 13 23.2
2014-Nov-22 09:24 080 12 gusting 14 23.1
2014-Nov-22 09:18 080 11 gusting 12 23.0
2014-Nov-22 09:12 080 10 gusting 11 23.0
2014-Nov-22 09:06 080 11 gusting 14 23.0
2014-Nov-22 09:00 080 12 gusting 16 23.1
2014-Nov-22 08:54 070 12 gusting 14 23.2
2014-Nov-22 08:48 070 12 gusting 14 23.1